createdAt,value
2023-01-26T00:00:12.195Z,91.57
2023-01-26T00:02:40.809Z,101.53
2023-01-26T00:05:10.311Z,109.47
2023-01-26T00:07:42.566Z,108.90
2023-01-26T00:10:15.764Z,108.32
2023-01-26T00:12:44.619Z,100.63
2023-01-26T00:15:13.222Z,104.20
2023-01-26T00:17:43.081Z,97.93
2023-01-26T00:20:13.643Z,98.05
2023-01-26T00:22:42.085Z,91.15
2023-01-26T00:25:12.770Z,99.40
2023-01-26T00:27:41.268Z,91.07
2023-01-26T00:30:12.089Z,91.57
2023-01-26T00:32:40.953Z,104.93
2023-01-26T00:35:11.424Z,98.57
2023-01-26T00:37:42.170Z,87.93
2023-01-26T00:40:14.183Z,90.03
2023-01-26T00:42:43.186Z,95.35
2023-01-26T00:45:12.102Z,95.40
2023-01-26T00:47:40.389Z,98.30
2023-01-26T00:50:11.511Z,110.53
2023-01-26T00:52:40.701Z,102.88
2023-01-26T00:55:09.830Z,106.05
2023-01-26T00:57:39.860Z,101.38
2023-01-26T01:00:13.488Z,96.18
2023-01-26T01:02:42.155Z,92.97
2023-01-26T01:05:11.166Z,99.30
2023-01-26T01:07:39.507Z,95.75
2023-01-26T01:10:10.561Z,109.40
2023-01-26T01:12:40.731Z,102.03
2023-01-26T01:15:10.642Z,96.20
2023-01-26T01:17:39.068Z,95.15
2023-01-26T01:20:11.359Z,91.80
2023-01-26T01:25:09.727Z,96.55
2023-01-26T01:27:39.933Z,108.05
2023-01-26T01:30:11.157Z,87.93
2023-01-26T01:32:40.824Z,95.18
2023-01-26T01:35:10.496Z,101.30
2023-01-26T01:37:38.912Z,100.53
2023-01-26T01:40:13.744Z,91.00
2023-01-26T01:42:50.336Z,92.18
2023-01-26T01:45:44.799Z,88.70
2023-01-26T01:48:22.205Z,99.93
2023-01-26T01:50:53.354Z,99.10
2023-01-26T01:53:29.269Z,97.63
2023-01-26T01:56:01.311Z,100.45
2023-01-26T01:58:35.177Z,98.72
2023-01-26T02:01:03.652Z,111.68
2023-01-26T02:03:33.332Z,110.95
2023-01-26T02:06:09.031Z,95.57
2023-01-26T02:08:41.469Z,109.60
2023-01-26T02:11:23.182Z,118.03
2023-01-26T02:13:57.565Z,116.18
2023-01-26T02:16:26.297Z,111.40
2023-01-26T02:18:55.193Z,116.38
2023-01-26T02:21:26.074Z,111.45
2023-01-26T02:24:12.180Z,118.47
2023-01-26T02:26:42.357Z,114.63
2023-01-26T02:29:13.114Z,107.30
2023-01-26T02:31:45.555Z,107.47
2023-01-26T02:34:14.384Z,105.07
2023-01-26T02:36:42.817Z,115.00
2023-01-26T02:39:29.291Z,103.95
2023-01-26T02:42:16.645Z,115.32
2023-01-26T02:44:45.667Z,100.47
2023-01-26T02:47:15.784Z,96.68
2023-01-26T02:49:50.973Z,101.97
2023-01-26T02:52:24.233Z,107.75
2023-01-26T02:55:25.398Z,118.35
2023-01-26T02:57:59.183Z,109.38
2023-01-26T03:00:31.162Z,121.15
2023-01-26T03:03:02.958Z,107.20
2023-01-26T03:05:33.763Z,99.18
2023-01-26T03:08:06.204Z,127.65
2023-01-26T03:10:38.182Z,109.07
2023-01-26T03:13:09.925Z,126.57
2023-01-26T03:15:47.985Z,118.43
2023-01-26T03:18:35.770Z,125.18
2023-01-26T03:21:25.420Z,116.45
2023-01-26T03:24:11.840Z,136.73
2023-01-26T03:26:58.961Z,131.93
2023-01-26T03:29:29.565Z,118.25
2023-01-26T03:32:00.693Z,129.05
2023-01-26T03:34:30.779Z,119.60
2023-01-26T03:36:59.970Z,127.68
2023-01-26T03:39:53.080Z,121.60
2023-01-26T03:42:39.530Z,130.57
2023-01-26T03:45:29.031Z,129.07
2023-01-26T03:48:23.957Z,129.25
2023-01-26T03:51:10.028Z,124.38
2023-01-26T03:53:55.840Z,128.20
2023-01-26T03:56:25.123Z,133.88
2023-01-26T03:59:08.524Z,122.32
2023-01-26T04:01:41.848Z,112.95
2023-01-26T04:04:29.810Z,129.60
2023-01-26T04:07:16.738Z,137.93
2023-01-26T04:09:49.906Z,133.02
2023-01-26T04:12:18.281Z,144.95
2023-01-26T04:15:16.927Z,127.18
2023-01-26T04:18:04.491Z,139.27
2023-01-26T04:20:52.282Z,131.43
2023-01-26T04:23:21.310Z,112.78
2023-01-26T04:25:52.224Z,133.77
2023-01-26T04:28:20.702Z,121.60
2023-01-26T04:30:50.393Z,123.70
2023-01-26T04:33:20.747Z,133.30
2023-01-26T04:35:49.891Z,152.38
2023-01-26T04:38:19.276Z,112.35
2023-01-26T04:40:55.115Z,109.43
2023-01-26T04:43:24.083Z,109.43
2023-01-26T04:46:01.380Z,130.40
2023-01-26T04:48:33.210Z,118.57
2023-01-26T04:51:04.207Z,125.85
2023-01-26T04:53:34.084Z,121.15
2023-01-26T04:56:02.887Z,123.13
2023-01-26T04:58:33.906Z,118.97
2023-01-26T05:01:03.225Z,118.35
2023-01-26T05:03:34.456Z,129.73
2023-01-26T05:06:03.141Z,124.75
2023-01-26T05:08:33.417Z,138.38
2023-01-26T05:11:01.895Z,130.18
2023-01-26T05:13:49.296Z,154.52
2023-01-26T05:16:36.527Z,165.75
2023-01-26T05:19:10.430Z,157.13
2023-01-26T05:22:03.715Z,139.27
2023-01-26T05:24:35.128Z,134.65
2023-01-26T05:27:24.871Z,143.10
2023-01-26T05:30:00.813Z,140.63
2023-01-26T05:32:33.085Z,148.20
2023-01-26T05:35:03.056Z,146.95
2023-01-26T05:37:33.366Z,147.55
2023-01-26T05:40:04.021Z,166.48
2023-01-26T05:42:32.868Z,148.77
2023-01-26T05:45:27.473Z,163.02
2023-01-26T05:47:59.174Z,166.68
2023-01-26T05:50:29.480Z,152.88
2023-01-26T05:53:19.760Z,156.80
2023-01-26T05:55:50.151Z,164.82
2023-01-26T05:58:22.223Z,152.70
2023-01-26T06:00:50.812Z,159.18
2023-01-26T06:03:25.885Z,169.63
2023-01-26T06:05:56.936Z,157.93
2023-01-26T06:08:38.594Z,168.18
2023-01-26T06:11:27.112Z,167.63
2023-01-26T06:14:12.478Z,190.70
2023-01-26T06:16:41.537Z,182.73
2023-01-26T06:19:12.525Z,180.80
2023-01-26T06:21:44.057Z,181.75
2023-01-26T06:24:14.487Z,159.07
2023-01-26T06:26:54.421Z,179.25
2023-01-26T06:29:26.135Z,179.60
2023-01-26T06:31:55.011Z,184.23
2023-01-26T06:34:24.255Z,187.88
2023-01-26T06:36:54.602Z,210.23
2023-01-26T06:39:28.876Z,163.90
2023-01-26T06:41:57.850Z,163.40
2023-01-26T06:44:26.786Z,178.38
2023-01-26T06:46:55.696Z,175.98
2023-01-26T06:49:25.675Z,178.23
2023-01-26T06:52:04.567Z,185.55
2023-01-26T06:54:51.339Z,220.38
2023-01-26T06:57:55.596Z,192.13
2023-01-26T07:00:53.847Z,185.20
2023-01-26T07:03:35.661Z,178.40
2023-01-26T07:06:03.926Z,195.98
2023-01-26T07:08:33.769Z,188.43
2023-01-26T07:11:02.322Z,196.63
2023-01-26T07:13:31.126Z,185.63
2023-01-26T07:16:02.617Z,179.70
2023-01-26T07:18:31.485Z,192.30
2023-01-26T07:21:02.580Z,211.02
2023-01-26T07:23:32.602Z,172.95
2023-01-26T07:26:05.140Z,198.23
2023-01-26T07:28:34.712Z,171.65
2023-01-26T07:31:04.887Z,142.40
2023-01-26T07:33:35.399Z,177.90
2023-01-26T07:36:04.891Z,141.52
2023-01-26T07:38:34.755Z,163.43
2023-01-26T07:41:10.619Z,164.35
2023-01-26T07:43:41.250Z,159.00
2023-01-26T07:46:12.751Z,161.80
2023-01-26T07:48:41.807Z,175.50
2023-01-26T07:51:11.370Z,215.30
2023-01-26T07:53:42.268Z,158.80
2023-01-26T07:56:14.833Z,152.95
2023-01-26T07:58:44.245Z,157.90
2023-01-26T08:01:16.325Z,165.57
2023-01-26T08:03:46.047Z,157.65
2023-01-26T08:06:15.719Z,159.70
2023-01-26T08:08:45.142Z,154.70
2023-01-26T08:11:15.820Z,154.93
2023-01-26T08:13:44.299Z,156.23
2023-01-26T08:16:13.680Z,152.25
2023-01-26T08:18:43.479Z,148.65
2023-01-26T08:21:13.195Z,162.57
2023-01-26T08:23:42.309Z,163.63
2023-01-26T08:26:13.495Z,143.75
2023-01-26T08:28:43.820Z,140.30
2023-01-26T08:31:18.760Z,146.98
2023-01-26T08:33:50.986Z,142.25
2023-01-26T08:36:23.041Z,123.68
2023-01-26T08:38:52.050Z,118.75
2023-01-26T08:41:23.334Z,124.65
2023-01-26T08:43:53.417Z,132.05
2023-01-26T08:46:21.992Z,135.43
2023-01-26T08:48:50.220Z,147.43
2023-01-26T08:51:19.114Z,132.23
2023-01-26T08:53:47.686Z,142.45
2023-01-26T08:56:16.027Z,132.32
2023-01-26T08:58:44.601Z,121.47
2023-01-26T09:01:17.923Z,120.10
2023-01-26T09:03:46.881Z,124.72
2023-01-26T09:06:16.083Z,123.55
2023-01-26T09:08:44.584Z,127.75
2023-01-26T09:11:14.292Z,128.93
2023-01-26T09:13:42.813Z,127.47
2023-01-26T09:16:20.470Z,126.35
2023-01-26T09:18:51.759Z,148.63
2023-01-26T09:21:20.935Z,138.00
2023-01-26T09:23:50.190Z,140.18
2023-01-26T09:26:18.842Z,143.25
2023-01-26T09:28:51.567Z,147.07
2023-01-26T09:31:21.935Z,130.15
2023-01-26T09:33:50.571Z,145.70
2023-01-26T09:36:20.051Z,157.25
2023-01-26T09:38:48.538Z,154.55
2023-01-26T09:41:56.605Z,154.02
2023-01-26T09:44:27.450Z,162.57
2023-01-26T09:47:07.248Z,161.98
2023-01-26T09:49:49.503Z,174.88
2023-01-26T09:52:27.556Z,157.63
2023-01-26T09:54:59.600Z,204.20
2023-01-26T09:57:35.923Z,222.18
2023-01-26T10:00:11.519Z,224.35
2023-01-26T10:03:02.200Z,237.55
2023-01-26T10:05:42.747Z,255.25
2023-01-26T10:08:14.531Z,230.38
2023-01-26T10:10:48.326Z,227.83
2023-01-26T10:13:19.075Z,232.02
2023-01-26T10:15:53.350Z,230.95
2023-01-26T10:18:28.609Z,234.20
2023-01-26T10:21:00.767Z,223.40
2023-01-26T10:23:33.712Z,263.38
2023-01-26T10:26:14.222Z,226.60
2023-01-26T10:28:44.897Z,236.00
2023-01-26T10:31:18.108Z,251.05
2023-01-26T10:33:53.676Z,244.50
2023-01-26T10:36:22.841Z,244.23
2023-01-26T10:38:51.705Z,245.23
2023-01-26T10:41:30.301Z,251.75
2023-01-26T10:44:01.046Z,221.75
2023-01-26T10:46:34.292Z,185.25
2023-01-26T10:49:17.252Z,218.85
2023-01-26T10:54:28.712Z,205.57
2023-01-26T10:57:02.438Z,197.10
2023-01-26T10:59:35.349Z,183.82
2023-01-26T11:02:22.361Z,174.60
2023-01-26T11:05:17.214Z,183.57
2023-01-26T11:07:47.335Z,195.20
2023-01-26T11:10:24.711Z,169.77
2023-01-26T11:13:08.379Z,171.55
2023-01-26T11:15:40.283Z,172.57
2023-01-26T11:18:29.873Z,153.40
2023-01-26T11:21:11.161Z,172.93
2023-01-26T11:23:53.034Z,159.13
2023-01-26T11:27:17.326Z,138.32
2023-01-26T11:30:06.387Z,171.18
2023-01-26T11:32:48.071Z,134.55
2023-01-26T11:35:31.507Z,148.98
2023-01-26T11:38:23.387Z,162.68
2023-01-26T11:41:04.794Z,157.82
2023-01-26T11:44:07.037Z,157.23
2023-01-26T11:47:02.063Z,170.25
2023-01-26T11:50:08.132Z,175.07
2023-01-26T11:52:50.227Z,170.55
2023-01-26T11:55:32.332Z,172.95
2023-01-26T11:58:22.273Z,188.38
2023-01-26T12:00:54.351Z,170.30
2023-01-26T12:03:29.323Z,192.88
2023-01-26T12:06:03.650Z,189.43
2023-01-26T12:08:40.856Z,194.35
2023-01-26T12:11:25.558Z,183.85
2023-01-26T12:14:17.504Z,200.55
2023-01-26T12:17:17.348Z,206.52
2023-01-26T12:19:55.679Z,182.45
2023-01-26T12:22:33.917Z,182.73
2023-01-26T12:25:26.052Z,231.20
2023-01-26T12:28:07.184Z,192.52
2023-01-26T12:30:42.906Z,195.20
2023-01-26T12:33:13.132Z,184.98
2023-01-26T12:36:00.918Z,196.10
2023-01-26T12:38:44.581Z,193.43
2023-01-26T12:41:20.561Z,162.10
2023-01-26T12:44:11.950Z,163.85
2023-01-26T12:46:46.695Z,142.07
2023-01-26T12:49:22.909Z,131.00
2023-01-26T12:51:58.510Z,140.13
2023-01-26T12:54:40.334Z,153.55
2023-01-26T12:57:17.233Z,145.05
2023-01-26T12:59:49.314Z,141.85
2023-01-26T13:02:30.327Z,145.32
2023-01-26T13:05:01.848Z,157.07
2023-01-26T13:07:35.170Z,152.48
2023-01-26T13:10:30.756Z,138.18
2023-01-26T13:13:02.077Z,121.05
2023-01-26T13:15:33.923Z,116.88
2023-01-26T13:18:05.289Z,111.57
2023-01-26T13:20:54.427Z,130.77
2023-01-26T13:23:53.156Z,122.97
2023-01-26T13:26:47.434Z,124.47
2023-01-26T13:29:34.854Z,112.43
2023-01-26T13:32:56.135Z,99.65
2023-01-26T13:35:28.024Z,113.00
2023-01-26T13:38:05.363Z,101.20
2023-01-26T13:40:37.393Z,89.03
2023-01-26T13:43:25.617Z,77.95
2023-01-26T13:46:12.510Z,101.57
2023-01-26T13:48:48.523Z,100.50
2023-01-26T13:51:24.269Z,98.50
2023-01-26T13:54:01.724Z,92.10
2023-01-26T13:56:34.407Z,98.95
2023-01-26T14:01:48.292Z,84.35
2023-01-26T14:04:22.535Z,77.00
2023-01-26T14:06:57.938Z,77.15
2023-01-26T14:09:30.093Z,80.78
2023-01-26T14:12:05.507Z,71.68
2023-01-26T14:14:38.970Z,65.10
2023-01-26T14:17:29.098Z,119.43
2023-01-26T14:19:59.844Z,63.22
2023-01-26T14:22:31.071Z,66.35
2023-01-26T14:24:59.851Z,70.40
2023-01-26T14:27:37.651Z,58.83
2023-01-26T14:30:26.394Z,59.60
2023-01-26T14:33:05.743Z,57.25
2023-01-26T14:35:34.436Z,48.13
2023-01-26T14:38:28.709Z,48.25
2023-01-26T14:40:59.940Z,49.47
2023-01-26T14:43:28.974Z,54.13
2023-01-26T14:46:04.482Z,52.75
2023-01-26T14:48:39.081Z,62.08
2023-01-26T14:51:14.419Z,57.13
2023-01-26T14:53:51.919Z,58.88
2023-01-26T14:56:26.503Z,57.78
2023-01-26T14:58:56.657Z,67.80
2023-01-26T15:01:28.198Z,59.05
2023-01-26T15:04:09.703Z,64.13
2023-01-26T15:06:38.271Z,67.90
2023-01-26T15:09:24.398Z,80.13
2023-01-26T15:12:15.669Z,82.95
2023-01-26T15:14:52.276Z,79.32
2023-01-26T15:17:37.899Z,91.60
2023-01-26T15:20:40.730Z,90.03
2023-01-26T15:23:29.766Z,94.22
2023-01-26T15:26:09.032Z,104.00
2023-01-26T15:28:39.216Z,102.45
2023-01-26T15:31:09.347Z,105.57
2023-01-26T15:33:43.665Z,112.15
2023-01-26T15:36:32.788Z,147.60
2023-01-26T15:39:13.693Z,135.68
2023-01-26T15:41:46.293Z,141.93
2023-01-26T15:44:17.804Z,140.27
2023-01-26T15:46:46.949Z,132.70
2023-01-26T15:49:19.866Z,131.95
2023-01-26T15:51:50.084Z,108.65
2023-01-26T15:54:19.910Z,183.43
2023-01-26T15:56:51.751Z,149.35
2023-01-26T15:59:21.228Z,204.30
2023-01-26T16:01:51.216Z,205.18
2023-01-26T16:04:20.722Z,255.15
2023-01-26T16:06:50.224Z,202.15
2023-01-26T16:09:18.813Z,341.20
2023-01-26T16:11:53.676Z,291.33
2023-01-26T16:14:22.250Z,298.00
2023-01-26T16:16:50.775Z,297.63
2023-01-26T16:19:33.730Z,344.75
2023-01-26T16:22:04.106Z,315.90
2023-01-26T16:24:32.698Z,323.70
2023-01-26T16:27:04.419Z,600.88
2023-01-26T16:29:32.991Z,438.97
2023-01-26T16:32:02.464Z,362.25
2023-01-26T16:34:32.433Z,355.77
2023-01-26T16:37:00.889Z,348.55
2023-01-26T16:39:29.394Z,370.73
2023-01-26T16:41:58.060Z,406.00
2023-01-26T16:44:28.160Z,370.83
2023-01-26T16:46:56.690Z,390.42
2023-01-26T16:49:26.826Z,415.23
2023-01-26T16:51:55.706Z,407.88
2023-01-26T16:54:24.242Z,212.88
2023-01-26T16:56:52.996Z,287.60
2023-01-26T16:59:21.740Z,333.42
2023-01-26T17:01:52.155Z,304.92
2023-01-26T17:04:20.858Z,430.80
2023-01-26T17:06:49.218Z,485.00
2023-01-26T17:09:17.876Z,328.70
2023-01-26T17:11:46.406Z,255.05
2023-01-26T17:14:15.400Z,275.27
2023-01-26T17:16:44.384Z,304.00
2023-01-26T17:19:14.776Z,292.40
2023-01-26T17:21:43.625Z,432.20
2023-01-26T17:24:12.554Z,332.20
2023-01-26T17:26:41.497Z,263.13
2023-01-26T17:29:13.408Z,317.50
2023-01-26T17:31:42.184Z,276.45
2023-01-26T17:34:11.125Z,287.20
2023-01-26T17:36:41.012Z,313.38
2023-01-26T17:39:12.274Z,293.17
2023-01-26T17:41:40.758Z,199.98
2023-01-26T17:44:09.501Z,298.50
2023-01-26T17:46:38.162Z,260.25
2023-01-26T17:49:06.852Z,255.70
2023-01-26T17:51:35.980Z,232.30
2023-01-26T17:54:06.001Z,189.52
2023-01-26T17:56:34.900Z,184.05
2023-01-26T17:59:03.806Z,152.13
2023-01-26T18:01:33.047Z,165.20
2023-01-26T18:04:02.325Z,163.77
2023-01-26T18:06:31.120Z,149.00
2023-01-26T18:09:00.173Z,137.93
2023-01-26T18:11:29.845Z,131.43
2023-01-26T18:13:58.486Z,164.10
2023-01-26T18:16:27.791Z,150.20
2023-01-26T18:18:57.669Z,153.10
2023-01-26T18:21:29.048Z,144.10
2023-01-26T18:24:01.115Z,160.38
2023-01-26T18:26:33.588Z,112.97
2023-01-26T18:29:02.084Z,145.77
2023-01-26T18:31:33.787Z,153.25
2023-01-26T18:34:04.343Z,129.83
2023-01-26T18:36:33.358Z,164.98
2023-01-26T18:39:07.706Z,132.90
2023-01-26T18:41:40.268Z,150.63
2023-01-26T18:44:08.603Z,160.68
2023-01-26T18:46:37.520Z,119.97
2023-01-26T18:49:06.030Z,129.45
2023-01-26T18:51:36.778Z,131.63
2023-01-26T18:54:05.964Z,167.43
2023-01-26T18:56:36.233Z,192.05
2023-01-26T18:59:04.936Z,120.80
2023-01-26T19:01:33.359Z,122.15
2023-01-26T19:04:04.247Z,124.10
2023-01-26T19:06:35.219Z,111.85
2023-01-26T19:09:08.939Z,102.88
2023-01-26T19:11:40.489Z,126.90
2023-01-26T19:14:09.683Z,131.43
2023-01-26T19:16:38.196Z,132.85
2023-01-26T19:19:06.774Z,112.57
2023-01-26T19:21:35.337Z,110.07
2023-01-26T19:24:06.243Z,105.80
2023-01-26T19:26:35.371Z,96.53
2023-01-26T19:29:05.761Z,92.07
2023-01-26T19:31:36.473Z,88.57
2023-01-26T19:34:07.655Z,88.18
2023-01-26T19:36:37.847Z,97.80
2023-01-26T19:39:07.741Z,77.75
2023-01-26T19:41:38.991Z,75.78
2023-01-26T19:44:09.148Z,107.03
2023-01-26T19:46:37.510Z,87.45
2023-01-26T19:49:08.557Z,93.20
2023-01-26T19:51:36.847Z,85.13
2023-01-26T19:54:05.763Z,83.25
2023-01-26T19:56:36.302Z,79.82
2023-01-26T19:59:10.118Z,95.30
2023-01-26T20:01:39.006Z,106.95
2023-01-26T20:04:10.595Z,106.85
2023-01-26T20:06:39.755Z,116.82
2023-01-26T20:09:10.257Z,114.90
2023-01-26T20:11:38.553Z,101.15
2023-01-26T20:14:11.452Z,121.25
2023-01-26T20:16:41.143Z,105.00
2023-01-26T20:19:10.158Z,107.50
2023-01-26T20:21:38.802Z,95.93
2023-01-26T20:24:08.935Z,89.07
2023-01-26T20:26:37.448Z,80.55
2023-01-26T20:29:08.834Z,91.60
2023-01-26T20:31:40.956Z,87.32
2023-01-26T20:34:09.468Z,97.97
2023-01-26T20:36:40.239Z,88.15
2023-01-26T20:39:09.634Z,114.28
2023-01-26T20:41:39.215Z,92.00
2023-01-26T20:44:08.545Z,111.00
2023-01-26T20:46:41.026Z,94.45
2023-01-26T20:49:12.761Z,74.20
2023-01-26T20:51:43.597Z,100.63
2023-01-26T20:54:15.254Z,85.32
2023-01-26T20:56:45.672Z,62.58
2023-01-26T20:59:14.065Z,67.88
2023-01-26T21:01:43.871Z,76.53
2023-01-26T21:04:12.492Z,78.00
2023-01-26T21:06:42.087Z,73.20
2023-01-26T21:09:12.743Z,69.82
2023-01-26T21:11:41.688Z,102.28
2023-01-26T21:14:14.264Z,95.55
2023-01-26T21:19:12.802Z,99.75
2023-01-26T21:21:41.372Z,102.90
2023-01-26T21:24:09.787Z,97.85
2023-01-26T21:26:39.092Z,116.03
2023-01-26T21:29:07.950Z,100.60
2023-01-26T21:31:36.247Z,116.82
2023-01-26T21:34:06.387Z,112.22
2023-01-26T21:36:35.022Z,101.53
2023-01-26T21:39:03.619Z,84.63
2023-01-26T21:41:51.686Z,91.13
2023-01-26T21:44:22.616Z,98.55
2023-01-26T21:46:53.798Z,81.80
2023-01-26T21:49:25.106Z,73.82
2023-01-26T21:52:11.814Z,70.85
2023-01-26T21:54:40.722Z,79.82
2023-01-26T21:57:25.466Z,64.63
2023-01-26T21:59:54.406Z,62.45
2023-01-26T22:02:23.390Z,67.30
2023-01-26T22:04:54.351Z,61.65
2023-01-26T22:07:22.740Z,53.50
2023-01-26T22:09:51.376Z,55.15
2023-01-26T22:12:19.658Z,46.80
2023-01-26T22:14:47.904Z,53.63
2023-01-26T22:17:16.649Z,53.75
2023-01-26T22:19:45.144Z,50.00
2023-01-26T22:22:14.855Z,65.72
2023-01-26T22:24:43.063Z,48.22
2023-01-26T22:27:11.824Z,43.75
2023-01-26T22:29:40.451Z,40.63
2023-01-26T22:32:08.725Z,46.42
2023-01-26T22:34:37.502Z,41.67
2023-01-26T22:37:06.026Z,39.45
2023-01-26T22:39:35.639Z,43.35
2023-01-26T22:42:04.296Z,50.60
2023-01-26T22:44:34.525Z,39.80
2023-01-26T22:47:03.844Z,37.90
2023-01-26T22:49:32.157Z,37.20
2023-01-26T22:52:00.428Z,32.50
2023-01-26T22:54:28.742Z,35.40
2023-01-26T22:56:58.777Z,32.03
2023-01-26T22:59:27.644Z,35.42
2023-01-26T23:01:56.443Z,33.78
2023-01-26T23:04:25.007Z,32.08
2023-01-26T23:06:53.299Z,33.47
2023-01-26T23:09:22.037Z,32.95
2023-01-26T23:12:02.716Z,23.80
2023-01-26T23:14:32.228Z,32.53
2023-01-26T23:17:00.883Z,33.08
2023-01-26T23:19:30.198Z,36.17
2023-01-26T23:21:58.490Z,28.25
2023-01-26T23:24:27.018Z,30.80
2023-01-26T23:26:55.728Z,32.85
2023-01-26T23:29:25.889Z,30.13
2023-01-26T23:31:54.532Z,35.17
2023-01-26T23:34:22.920Z,34.67
2023-01-26T23:36:51.608Z,32.20
2023-01-26T23:39:20.309Z,28.48
2023-01-26T23:41:48.598Z,25.88
2023-01-26T23:44:16.826Z,29.50
2023-01-26T23:46:48.428Z,24.88
2023-01-26T23:49:19.191Z,28.27
2023-01-26T23:51:47.738Z,31.92
2023-01-26T23:54:16.194Z,31.83
2023-01-26T23:56:44.684Z,34.97
2023-01-26T23:59:13.405Z,28.98
